Time;durP1;ratioP1;P1;durP2;ratioP2;P2;SDS_P1;SDS_P2;PMS_P1;PMS_P2;Temp;Humidity;BMP_temperature;BMP_pressure;BME280_temperature;BME280_humidity;BME280_pressure;Samples;Min_cycle;Max_cycle;Signal;HPM_P1;HPM_P2
2022/07/11 00:01:19;;;;;;;;;;;;;;;;;;5088494;28;1402;-71
2022/07/11 00:03:46;;;;;;;;;;;;;;;;;;5088414;28;1390;-71
2022/07/11 00:06:12;;;;;;;;;;;;;;;;;;5093288;28;1374;-71
2022/07/11 00:08:39;;;;;;;;;;;;;;;;;;5085443;28;1918;-71
2022/07/11 00:11:06;;;;;;;;;;;;;;;;;;5093119;28;1569;-72
2022/07/11 00:13:32;;;;;;;;;;;;;;;;;;5096146;28;1141;-71
2022/07/11 00:15:58;;;;;;;;;;;;;;;;;;5073588;28;1063;-71
2022/07/11 00:18:25;;;;;;;;;;;;;;;;;;5096532;28;1445;-72
2022/07/11 00:20:51;;;;;;;;;;;;;;;;;;5079228;28;1498;-71
2022/07/11 00:23:18;;;;;;;;;;;;;;;;;;5071198;28;1471;-71
2022/07/11 00:25:47;;;;;;;;;;;;;;;;;;5088705;28;1458;-70
2022/07/11 00:28:13;;;;;;;;;;;;;;;;;;5086747;28;1917;-71
2022/07/11 00:30:39;;;;;;;;;;;;;;;;;;5074146;28;1466;-70
2022/07/11 00:33:06;;;;;;;;;;;;;;;;;;5090491;28;1125;-71
2022/07/11 00:35:32;;;;;;;;;;;;;;;;;;5073120;28;1134;-71
2022/07/11 00:37:58;;;;;;;;;;;;;;;;;;5088415;28;1458;-71
2022/07/11 00:40:25;;;;;;;;;;;;;;;;;;5071954;28;1551;-71
2022/07/11 00:42:52;;;;;;;;;;;;;;;;;;5086012;28;1390;-72
2022/07/11 00:45:18;;;;;;;;;;;;;;;;;;5089616;28;1182;-71
2022/07/11 00:47:45;;;;;;;;;;;;;;;;;;5072068;28;1420;-72
2022/07/11 00:50:11;;;;;;;;;;;;;;;;;;5094252;28;1985;-72
2022/07/11 00:55:45;;;;;;;;;;;;;;;;;;5030060;28;1405;-69
2022/07/11 00:58:12;;;;;;;;;;;;;;;;;;5030180;28;1421;-69
2022/07/11 01:00:39;;;;;;;;;;;;;;;;;;5032336;28;1406;-68
2022/07/11 01:03:05;;;;;;;;;;;;;;;;;;5014971;28;1258;-70
2022/07/11 01:05:31;;;;;;;;;;;;;;;;;;5025642;28;1580;-70
2022/07/11 01:07:57;;;;;;;;;;;;;;;;;;5031538;28;1930;-70
2022/07/11 01:10:23;;;;;;;;;;;;;;;;;;5029943;28;1501;-70
2022/07/11 01:12:50;;;;;;;;;;;;;;;;;;5027340;28;1423;-69
2022/07/11 01:15:17;;;;;;;;;;;;;;;;;;5032588;28;1139;-70
2022/07/11 01:17:43;;;;;;;;;;;;;;;;;;5021337;28;1490;-71
2022/07/11 01:20:11;;;;;;;;;;;;;;;;;;5025118;28;1556;-69
2022/07/11 01:22:40;;;;;;;;;;;;;;;;;;5014758;28;1274;-70
2022/07/11 01:25:08;;;;;;;;;;;;;;;;;;5031881;28;1441;-70
2022/07/11 01:27:34;;;;;;;;;;;;;;;;;;5029171;28;1405;-69
2022/07/11 01:30:00;;;;;;;;;;;;;;;;;;5031356;28;2038;-70
2022/07/11 01:32:26;;;;;;;;;;;;;;;;;;5024767;28;1413;-68
2022/07/11 01:34:52;;;;;;;;;;;;;;;;;;5029091;28;1517;-69
2022/07/11 01:37:19;;;;;;;;;;;;;;;;;;5029383;28;1419;-70
2022/07/11 01:39:45;;;;;;;;;;;;;;;;;;5031563;28;1341;-70
2022/07/11 01:42:12;;;;;;;;;;;;;;;;;;5030069;28;1419;-70
2022/07/11 01:44:38;;;;;;;;;;;;;;;;;;5024971;28;1391;-70
2022/07/11 01:47:05;;;;;;;;;;;;;;;;;;5028975;28;1538;-70
2022/07/11 01:49:31;;;;;;;;;;;;;;;;;;5024175;28;1981;-69
2022/07/11 01:51:57;;;;;;;;;;;;;;;;;;5030163;28;1156;-70
2022/07/11 01:54:23;;;;;;;;;;;;;;;;;;5025914;28;1477;-70
2022/07/11 01:56:50;;;;;;;;;;;;;;;;;;5028843;28;1376;-70
2022/07/11 01:59:17;;;;;;;;;;;;;;;;;;5028074;28;1409;-70
2022/07/11 02:01:43;;;;;;;;;;;;;;;;;;5022665;28;1383;-69
2022/07/11 02:04:09;;;;;;;;;;;;;;;;;;5024543;28;1353;-70
2022/07/11 02:06:35;;;;;;;;;;;;;;;;;;5030541;28;1369;-70
2022/07/11 02:09:02;;;;;;;;;;;;;;;;;;5029414;28;1979;-71
2022/07/11 02:11:28;;;;;;;;;;;;;;;;;;5031186;28;1396;-69
2022/07/11 02:13:54;;;;;;;;;;;;;;;;;;5013846;28;1336;-70
2022/07/11 02:16:22;;;;;;;;;;;;;;;;;;5029742;28;1580;-70
2022/07/11 02:18:49;;;;;;;;;;;;;;;;;;5027649;28;1398;-70
2022/07/11 02:21:15;;;;;;;;;;;;;;;;;;5028153;28;1048;-69
2022/07/11 02:23:41;;;;;;;;;;;;;;;;;;5030928;28;1420;-69
2022/07/11 02:26:07;;;;;;;;;;;;;;;;;;5029871;28;1452;-68
2022/07/11 02:28:36;;;;;;;;;;;;;;;;;;5028769;28;1926;-70
2022/07/11 02:31:02;;;;;;;;;;;;;;;;;;5026053;28;1464;-70
2022/07/11 02:33:30;;;;;;;;;;;;;;;;;;5013075;28;1408;-70
2022/07/11 02:35:56;;;;;;;;;;;;;;;;;;5026506;28;1731;-68
2022/07/11 02:38:22;;;;;;;;;;;;;;;;;;5024620;28;2096;-70
2022/07/11 02:40:48;;;;;;;;;;;;;;;;;;5030395;28;1379;-69
2022/07/11 02:43:15;;;;;;;;;;;;;;;;;;5026913;28;1421;-70
2022/07/11 02:45:41;;;;;;;;;;;;;;;;;;5026690;28;1519;-70
2022/07/11 02:48:07;;;;;;;;;;;;;;;;;;5029935;28;1210;-70
2022/07/11 02:50:35;;;;;;;;;;;;;;;;;;5031227;28;1973;-69
2022/07/11 02:53:01;;;;;;;;;;;;;;;;;;5030925;28;1303;-70
2022/07/11 02:55:27;;;;;;;;;;;;;;;;;;5019731;28;1434;-70
2022/07/11 02:57:54;;;;;;;;;;;;;;;;;;5029772;28;1371;-69
2022/07/11 03:00:20;;;;;;;;;;;;;;;;;;5028936;28;1396;-70
2022/07/11 03:02:46;;;;;;;;;;;;;;;;;;5022714;28;1400;-70
2022/07/11 03:05:13;;;;;;;;;;;;;;;;;;5030291;28;1357;-68
2022/07/11 03:07:41;;;;;;;;;;;;;;;;;;5024279;28;1554;-70
2022/07/11 03:10:07;;;;;;;;;;;;;;;;;;5029456;28;1926;-69
2022/07/11 03:12:34;;;;;;;;;;;;;;;;;;5030193;28;1447;-69
2022/07/11 03:15:00;;;;;;;;;;;;;;;;;;5030080;28;1443;-69
2022/07/11 03:17:26;;;;;;;;;;;;;;;;;;5029375;28;1376;-69
2022/07/11 03:19:52;;;;;;;;;;;;;;;;;;5030993;28;1159;-69
2022/07/11 03:22:19;;;;;;;;;;;;;;;;;;5023538;28;1331;-70
2022/07/11 03:24:46;;;;;;;;;;;;;;;;;;5026636;28;2000;-70
2022/07/11 03:27:13;;;;;;;;;;;;;;;;;;5026643;28;1366;-70
2022/07/11 03:29:39;;;;;;;;;;;;;;;;;;5030630;28;1992;-69
2022/07/11 03:32:05;;;;;;;;;;;;;;;;;;5028438;28;1503;-70
2022/07/11 03:34:31;;;;;;;;;;;;;;;;;;5016991;28;1484;-69
2022/07/11 03:36:58;;;;;;;;;;;;;;;;;;5030356;28;1433;-70
2022/07/11 03:39:24;;;;;;;;;;;;;;;;;;5031528;28;1638;-70
2022/07/11 03:41:51;;;;;;;;;;;;;;;;;;5029703;28;1450;-68
2022/07/11 03:44:17;;;;;;;;;;;;;;;;;;5008516;28;1436;-70
2022/07/11 03:46:44;;;;;;;;;;;;;;;;;;5028179;28;1592;-70
2022/07/11 03:49:10;;;;;;;;;;;;;;;;;;5000061;28;1942;-68
2022/07/11 03:51:37;;;;;;;;;;;;;;;;;;4962682;28;1278;-68
2022/07/11 03:54:03;;;;;;;;;;;;;;;;;;4981233;28;1302;-68
2022/07/11 03:56:30;;;;;;;;;;;;;;;;;;4988187;28;877;-68
2022/07/11 03:58:57;;;;;;;;;;;;;;;;;;4987705;28;892;-68
2022/07/11 04:01:24;;;;;;;;;;;;;;;;;;4987528;28;862;-69
2022/07/11 04:03:50;;;;;;;;;;;;;;;;;;4985002;28;1326;-67
2022/07/11 04:06:17;;;;;;;;;;;;;;;;;;4981342;28;1130;-68
2022/07/11 04:08:43;;;;;;;;;;;;;;;;;;4965615;28;1226;-68
2022/07/11 04:11:10;;;;;;;;;;;;;;;;;;4974656;28;1950;-71
2022/07/11 04:13:37;;;;;;;;;;;;;;;;;;4962825;28;1361;-69
2022/07/11 04:16:05;;;;;;;;;;;;;;;;;;4969111;28;1319;-68
2022/07/11 04:18:31;;;;;;;;;;;;;;;;;;4967706;28;1051;-68
2022/07/11 04:20:58;;;;;;;;;;;;;;;;;;4968869;28;783;-68
2022/07/11 04:23:24;;;;;;;;;;;;;;;;;;4960249;28;1412;-69
2022/07/11 04:25:51;;;;;;;;;;;;;;;;;;4961109;28;1501;-68
2022/07/11 04:28:17;;;;;;;;;;;;;;;;;;4960514;28;918;-67
2022/07/11 04:30:44;;;;;;;;;;;;;;;;;;4969249;28;1938;-68
2022/07/11 04:33:12;;;;;;;;;;;;;;;;;;4963731;28;1700;-68
2022/07/11 04:35:38;;;;;;;;;;;;;;;;;;4948708;28;1094;-68
2022/07/11 04:38:05;;;;;;;;;;;;;;;;;;4966833;28;1432;-68
2022/07/11 04:40:32;;;;;;;;;;;;;;;;;;4966989;28;1491;-69
2022/07/11 04:42:58;;;;;;;;;;;;;;;;;;4958772;28;1302;-69
2022/07/11 04:45:24;;;;;;;;;;;;;;;;;;4953335;28;845;-68
2022/07/11 04:47:51;;;;;;;;;;;;;;;;;;4954497;28;1511;-70
2022/07/11 04:50:19;;;;;;;;;;;;;;;;;;4947880;28;2015;-67
2022/07/11 04:52:45;;;;;;;;;;;;;;;;;;4955185;28;1661;-68
2022/07/11 04:55:11;;;;;;;;;;;;;;;;;;4968240;28;1330;-69
2022/07/11 04:57:38;;;;;;;;;;;;;;;;;;5028303;28;1328;-70
2022/07/11 05:00:05;;;;;;;;;;;;;;;;;;5032752;28;1222;-72
2022/07/11 05:02:31;;;;;;;;;;;;;;;;;;5015265;28;1312;-72
2022/07/11 05:04:57;;;;;;;;;;;;;;;;;;5032862;28;1308;-72
2022/07/11 05:07:24;;;;;;;;;;;;;;;;;;5032486;28;811;-70
2022/07/11 05:09:51;;;;;;;;;;;;;;;;;;5032507;28;1975;-72
2022/07/11 05:12:17;;;;;;;;;;;;;;;;;;5031499;28;1391;-72
2022/07/11 05:14:43;;;;;;;;;;;;;;;;;;5032767;28;1317;-72
2022/07/11 05:17:09;;;;;;;;;;;;;;;;;;5032040;28;1067;-72
2022/07/11 05:19:35;;;;;;;;;;;;;;;;;;5026976;28;1575;-72
2022/07/11 05:22:02;;;;;;;;;;;;;;;;;;5030240;28;1306;-71
2022/07/11 05:24:29;;;;;;;;;;;;;;;;;;5029823;28;1504;-72
2022/07/11 05:26:55;;;;;;;;;;;;;;;;;;5031050;28;1214;-71
2022/07/11 05:29:22;;;;;;;;;;;;;;;;;;5020046;28;1384;-71
2022/07/11 05:31:52;;;;;;;;;;;;;;;;;;5027394;28;1334;-72
2022/07/11 05:34:18;;;;;;;;;;;;;;;;;;4989064;28;1490;-71
2022/07/11 05:36:45;;;;;;;;;;;;;;;;;;5025699;28;1394;-73
2022/07/11 05:39:11;;;;;;;;;;;;;;;;;;5012637;28;1366;-71
2022/07/11 05:41:38;;;;;;;;;;;;;;;;;;5034016;28;1228;-72
2022/07/11 05:44:04;;;;;;;;;;;;;;;;;;5032976;28;1397;-72
2022/07/11 05:46:31;;;;;;;;;;;;;;;;;;5034768;28;1433;-71
2022/07/11 05:48:57;;;;;;;;;;;;;;;;;;5030951;28;1366;-71
2022/07/11 05:51:23;;;;;;;;;;;;;;;;;;5029262;28;1981;-72
2022/07/11 05:53:49;;;;;;;;;;;;;;;;;;5030749;28;1495;-72
2022/07/11 05:56:15;;;;;;;;;;;;;;;;;;5030706;28;1337;-70
2022/07/11 05:58:43;;;;;;;;;;;;;;;;;;5031758;28;1218;-72
2022/07/11 06:01:09;;;;;;;;;;;;;;;;;;5011880;28;1553;-70
2022/07/11 06:03:36;;;;;;;;;;;;;;;;;;5026095;28;1572;-70
2022/07/11 06:06:04;;;;;;;;;;;;;;;;;;5030771;28;1456;-71
2022/07/11 06:08:42;;;;;;;;;;;;;;;;;;5030920;28;1476;-71
2022/07/11 06:11:10;;;;;;;;;;;;;;;;;;5031334;28;1910;-69
2022/07/11 06:13:37;;;;;;;;;;;;;;;;;;5024650;28;1437;-71
2022/07/11 06:16:04;;;;;;;;;;;;;;;;;;5011890;28;1471;-70
2022/07/11 06:18:30;;;;;;;;;;;;;;;;;;5041435;28;1400;-69
2022/07/11 06:20:57;;;;;;;;;;;;;;;;;;5041166;28;1348;-69
2022/07/11 06:23:23;;;;;;;;;;;;;;;;;;5039504;28;1403;-69
2022/07/11 06:25:49;;;;;;;;;;;;;;;;;;5035617;28;1305;-69
2022/07/11 06:28:15;;;;;;;;;;;;;;;;;;5034182;28;1395;-70
2022/07/11 06:30:41;;;;;;;;;;;;;;;;;;5022960;28;1914;-70
2022/07/11 06:33:09;;;;;;;;;;;;;;;;;;5040441;28;1404;-70
2022/07/11 06:35:35;;;;;;;;;;;;;;;;;;5031134;28;1122;-69
2022/07/11 06:38:01;;;;;;;;;;;;;;;;;;5027959;28;1335;-69
2022/07/11 06:40:27;;;;;;;;;;;;;;;;;;5027195;28;1066;-71
2022/07/11 06:42:54;;;;;;;;;;;;;;;;;;5046595;28;1416;-70
2022/07/11 06:45:20;;;;;;;;;;;;;;;;;;5031302;28;1088;-71
2022/07/11 06:47:46;;;;;;;;;;;;;;;;;;5029282;28;1229;-70
2022/07/11 06:50:14;;;;;;;;;;;;;;;;;;5030417;28;1919;-71
2022/07/11 06:52:40;;;;;;;;;;;;;;;;;;5030541;28;1055;-71
2022/07/11 06:55:06;;;;;;;;;;;;;;;;;;5008323;22;3699;-70
2022/07/11 06:57:33;;;;;;;;;;;;;;;;;;4967868;28;1060;-71
2022/07/11 06:59:59;;;;;;;;;;;;;;;;;;4960820;28;1134;-71
2022/07/11 07:02:29;;;;;;;;;;;;;;;;;;4962243;28;1256;-70
2022/07/11 07:04:55;;;;;;;;;;;;;;;;;;4972042;28;1934;-71
2022/07/11 07:07:23;;;;;;;;;;;;;;;;;;4971774;28;1047;-71
2022/07/11 07:09:49;;;;;;;;;;;;;;;;;;4972654;28;1118;-71
2022/07/11 07:12:15;;;;;;;;;;;;;;;;;;4971493;28;1979;-71
2022/07/11 07:14:42;;;;;;;;;;;;;;;;;;5026699;28;1478;-71
2022/07/11 07:17:08;;;;;;;;;;;;;;;;;;4952202;29;930;-71
2022/07/11 07:19:34;;;;;;;;;;;;;;;;;;4953038;28;858;-71
2022/07/11 07:22:00;;;;;;;;;;;;;;;;;;4952802;29;997;-72
2022/07/11 07:24:28;;;;;;;;;;;;;;;;;;4952722;28;1408;-71
2022/07/11 07:26:54;;;;;;;;;;;;;;;;;;4952014;29;1123;-71
2022/07/11 07:29:20;;;;;;;;;;;;;;;;;;4952832;28;830;-71
2022/07/11 07:31:47;;;;;;;;;;;;;;;;;;4952674;28;1985;-71
2022/07/11 07:34:13;;;;;;;;;;;;;;;;;;5018710;28;1334;-71
2022/07/11 07:36:39;;;;;;;;;;;;;;;;;;4952111;29;926;-71
2022/07/11 07:39:06;;;;;;;;;;;;;;;;;;4952472;29;1117;-71
2022/07/11 07:41:33;;;;;;;;;;;;;;;;;;4950991;28;1598;-71
2022/07/11 07:44:00;;;;;;;;;;;;;;;;;;4954945;28;1321;-71
2022/07/11 07:46:26;;;;;;;;;;;;;;;;;;4932416;28;1114;-71
2022/07/11 07:48:52;;;;;;;;;;;;;;;;;;4933620;28;959;-71
2022/07/11 07:51:18;;;;;;;;;;;;;;;;;;4932916;28;1915;-72
2022/07/11 07:53:44;;;;;;;;;;;;;;;;;;4954931;28;1380;-71
2022/07/11 07:56:10;;;;;;;;;;;;;;;;;;4962638;28;1174;-72
2022/07/11 07:58:38;;;;;;;;;;;;;;;;;;4965394;28;1454;-71
2022/07/11 08:03:49;;;;;;;;;;;;;;;;;;4962814;28;1406;-73
2022/07/11 08:06:15;;;;;;;;;;;;;;;;;;4966006;28;1456;-73
2022/07/11 08:08:41;;;;;;;;;;;;;;;;;;4960134;28;1158;-72
2022/07/11 08:11:07;;;;;;;;;;;;;;;;;;4970076;28;2404;-73
2022/07/11 08:13:34;;;;;;;;;;;;;;;;;;4969942;28;1390;-71
2022/07/11 08:16:01;;;;;;;;;;;;;;;;;;4971141;28;1060;-72
2022/07/11 08:18:27;;;;;;;;;;;;;;;;;;4970818;28;1048;-73
2022/07/11 08:20:54;;;;;;;;;;;;;;;;;;4961092;28;1430;-73
2022/07/11 08:23:20;;;;;;;;;;;;;;;;;;4958771;28;1150;-72
2022/07/11 08:25:46;;;;;;;;;;;;;;;;;;4951339;28;1382;-72
2022/07/11 08:28:12;;;;;;;;;;;;;;;;;;4951273;28;1123;-73
2022/07/11 08:30:39;;;;;;;;;;;;;;;;;;4951899;28;1914;-72
2022/07/11 08:33:06;;;;;;;;;;;;;;;;;;4958065;28;1013;-72
2022/07/11 08:35:32;;;;;;;;;;;;;;;;;;4957499;28;1392;-74
2022/07/11 08:37:58;;;;;;;;;;;;;;;;;;4946852;28;1986;-72
2022/07/11 08:40:25;;;;;;;;;;;;;;;;;;4950387;28;1428;-71
2022/07/11 08:42:51;;;;;;;;;;;;;;;;;;4951390;28;1153;-71
2022/07/11 08:45:17;;;;;;;;;;;;;;;;;;4951238;28;1293;-72
2022/07/11 08:47:44;;;;;;;;;;;;;;;;;;4952893;28;1397;-72
2022/07/11 08:50:12;;;;;;;;;;;;;;;;;;4996251;28;1154;-72
2022/07/11 08:52:38;;;;;;;;;;;;;;;;;;4970933;28;1926;-72
2022/07/11 08:55:06;;;;;;;;;;;;;;;;;;4971189;28;1438;-73
2022/07/11 08:57:33;;;;;;;;;;;;;;;;;;5035999;28;1242;-72
2022/07/11 08:59:59;;;;;;;;;;;;;;;;;;4948688;28;929;-71
2022/07/11 09:02:25;;;;;;;;;;;;;;;;;;4950124;28;1444;-70
2022/07/11 09:04:51;;;;;;;;;;;;;;;;;;4956643;28;1348;-73
2022/07/11 09:07:19;;;;;;;;;;;;;;;;;;4969709;28;1087;-72
2022/07/11 09:09:45;;;;;;;;;;;;;;;;;;4970467;28;1064;-71
2022/07/11 09:12:12;;;;;;;;;;;;;;;;;;4970442;28;1966;-71
2022/07/11 09:14:39;;;;;;;;;;;;;;;;;;4970020;28;1407;-73
2022/07/11 09:17:06;;;;;;;;;;;;;;;;;;4968497;28;1467;-72
2022/07/11 09:19:33;;;;;;;;;;;;;;;;;;4954879;28;1528;-72
2022/07/11 09:27:41;;;;;;;;;;;;;;;;;;4958016;28;1444;-72
2022/07/11 09:30:15;;;;;;;;;;;;;;;;;;4961159;28;941;-72
2022/07/11 09:32:42;;;;;;;;;;;;;;;;;;4966791;28;1922;-74
2022/07/11 09:35:10;;;;;;;;;;;;;;;;;;4961046;28;1342;-72
2022/07/11 09:37:42;;;;;;;;;;;;;;;;;;4969545;28;1241;-74
2022/07/11 09:40:13;;;;;;;;;;;;;;;;;;4966009;28;1393;-72
2022/07/11 09:42:46;;;;;;;;;;;;;;;;;;4958584;28;1127;-72
2022/07/11 09:45:12;;;;;;;;;;;;;;;;;;4950088;28;1326;-72
2022/07/11 09:47:43;;;;;;;;;;;;;;;;;;4949588;28;1072;-72
2022/07/11 09:50:09;;;;;;;;;;;;;;;;;;5016649;28;1414;-73
2022/07/11 09:52:35;;;;;;;;;;;;;;;;;;4958558;28;1910;-73
2022/07/11 09:55:02;;;;;;;;;;;;;;;;;;4951085;28;1417;-72
2022/07/11 09:57:32;;;;;;;;;;;;;;;;;;4955924;28;1059;-72
2022/07/11 09:59:59;;;;;;;;;;;;;;;;;;4950408;29;1045;-71
2022/07/11 10:02:25;;;;;;;;;;;;;;;;;;4949926;29;1088;-71
2022/07/11 10:04:52;;;;;;;;;;;;;;;;;;5015519;28;1609;-69
2022/07/11 10:07:18;;;;;;;;;;;;;;;;;;4955498;28;1801;-72
2022/07/11 10:09:44;;;;;;;;;;;;;;;;;;4965355;28;1159;-72
2022/07/11 10:12:10;;;;;;;;;;;;;;;;;;5035756;28;1918;-72
2022/07/11 10:14:38;;;;;;;;;;;;;;;;;;4961595;28;1471;-72
2022/07/11 10:17:06;;;;;;;;;;;;;;;;;;4960658;28;1209;-72
2022/07/11 10:19:35;;;;;;;;;;;;;;;;;;4968850;28;1075;-72
2022/07/11 10:22:05;;;;;;;;;;;;;;;;;;4969307;28;940;-73
2022/07/11 10:24:34;;;;;;;;;;;;;;;;;;4969296;28;1330;-72
2022/07/11 10:27:01;;;;;;;;;;;;;;;;;;5033910;28;1138;-72
2022/07/11 10:29:28;;;;;;;;;;;;;;;;;;5050780;28;1129;-71
2022/07/11 10:32:06;;;;;;;;;;;;;;;;;;4988253;28;1914;-73
2022/07/11 10:34:32;;;;;;;;;;;;;;;;;;4961719;28;1499;-71
2022/07/11 10:37:00;;;;;;;;;;;;;;;;;;4957666;28;1213;-72
2022/07/11 10:39:27;;;;;;;;;;;;;;;;;;4949979;28;786;-71
2022/07/11 10:41:53;;;;;;;;;;;;;;;;;;4949530;28;1102;-72
2022/07/11 10:44:19;;;;;;;;;;;;;;;;;;4949747;29;1324;-71
2022/07/11 10:46:47;;;;;;;;;;;;;;;;;;4948144;28;1429;-71
2022/07/11 10:49:18;;;;;;;;;;;;;;;;;;4956210;28;2586;-72
2022/07/11 10:51:48;;;;;;;;;;;;;;;;;;4969213;28;1977;-70
2022/07/11 10:54:17;;;;;;;;;;;;;;;;;;4958958;28;1424;-72
2022/07/11 10:56:50;;;;;;;;;;;;;;;;;;4967141;28;945;-73
2022/07/11 10:59:17;;;;;;;;;;;;;;;;;;4948541;28;1068;-73
2022/07/11 11:02:02;;;;;;;;;;;;;;;;;;5015392;28;1113;-72
2022/07/11 11:04:49;;;;;;;;;;;;;;;;;;4953828;28;1480;-72
2022/07/11 11:07:33;;;;;;;;;;;;;;;;;;4944647;29;886;-72
2022/07/11 11:10:01;;;;;;;;;;;;;;;;;;4958819;28;1460;-72
2022/07/11 11:12:45;;;;;;;;;;;;;;;;;;4962071;28;1914;-72
2022/07/11 11:15:33;;;;;;;;;;;;;;;;;;4965058;28;1492;-71
2022/07/11 11:18:00;;;;;;;;;;;;;;;;;;4949265;28;1464;-72
2022/07/11 11:20:34;;;;;;;;;;;;;;;;;;4955677;28;1185;-73
2022/07/11 11:23:09;;;;;;;;;;;;;;;;;;4949655;28;1152;-72
2022/07/11 11:25:36;;;;;;;;;;;;;;;;;;4948547;28;1468;-72
2022/07/11 11:28:03;;;;;;;;;;;;;;;;;;4954819;28;1378;-72
2022/07/11 11:30:29;;;;;;;;;;;;;;;;;;4953224;28;1568;-72
2022/07/11 11:32:56;;;;;;;;;;;;;;;;;;4956636;28;1906;-72
2022/07/11 11:35:22;;;;;;;;;;;;;;;;;;4959821;28;1405;-72
2022/07/11 11:37:49;;;;;;;;;;;;;;;;;;4967899;28;928;-72
2022/07/11 11:40:15;;;;;;;;;;;;;;;;;;4957143;28;1401;-73
2022/07/11 11:42:42;;;;;;;;;;;;;;;;;;5028676;28;1172;-73
2022/07/11 11:45:11;;;;;;;;;;;;;;;;;;4971096;28;1321;-71
2022/07/11 11:47:46;;;;;;;;;;;;;;;;;;4964875;28;1600;-72
2022/07/11 11:50:12;;;;;;;;;;;;;;;;;;4963184;28;1091;-71
2022/07/11 11:52:39;;;;;;;;;;;;;;;;;;4958583;28;1965;-73
2022/07/11 11:55:07;;;;;;;;;;;;;;;;;;4972599;28;1384;-72
2022/07/11 11:57:33;;;;;;;;;;;;;;;;;;4950575;28;1435;-72
2022/07/11 11:59:59;;;;;;;;;;;;;;;;;;4967608;28;1201;-71
2022/07/11 12:02:27;;;;;;;;;;;;;;;;;;4949826;28;1381;-72
2022/07/11 12:04:53;;;;;;;;;;;;;;;;;;4960283;28;1627;-72
2022/07/11 12:07:26;;;;;;;;;;;;;;;;;;4962942;28;1513;-71
2022/07/11 12:09:55;;;;;;;;;;;;;;;;;;4955681;28;1459;-72
2022/07/11 12:15:08;;;;;;;;;;;;;;;;;;4953469;28;1417;-71
2022/07/11 12:17:35;;;;;;;;;;;;;;;;;;4960504;28;1405;-71
2022/07/11 12:20:01;;;;;;;;;;;;;;;;;;4961430;28;1444;-71
2022/07/11 12:22:27;;;;;;;;;;;;;;;;;;4963541;28;984;-71
2022/07/11 12:24:54;;;;;;;;;;;;;;;;;;4953686;28;1366;-71
2022/07/11 12:27:21;;;;;;;;;;;;;;;;;;4959731;28;1479;-72
2022/07/11 12:29:50;;;;;;;;;;;;;;;;;;4957811;28;1444;-71
2022/07/11 12:32:16;;;;;;;;;;;;;;;;;;4970607;28;1902;-71
2022/07/11 12:34:44;;;;;;;;;;;;;;;;;;4957165;28;1459;-71
2022/07/11 12:37:12;;;;;;;;;;;;;;;;;;4961998;28;1276;-72
2022/07/11 12:39:40;;;;;;;;;;;;;;;;;;4956860;28;1397;-73
2022/07/11 12:42:21;;;;;;;;;;;;;;;;;;4957788;28;1599;-73
2022/07/11 12:45:00;;;;;;;;;;;;;;;;;;4971757;28;1330;-72
2022/07/11 12:47:27;;;;;;;;;;;;;;;;;;4970115;28;1126;-70
2022/07/11 12:49:53;;;;;;;;;;;;;;;;;;4960349;28;1444;-71
2022/07/11 12:52:19;;;;;;;;;;;;;;;;;;4958154;28;1980;-72
2022/07/11 12:54:45;;;;;;;;;;;;;;;;;;4981781;22;2542;-70
2022/07/11 12:57:15;;;;;;;;;;;;;;;;;;5040927;28;1268;-70
2022/07/11 12:59:42;;;;;;;;;;;;;;;;;;5054528;28;1472;-69
2022/07/11 13:02:10;;;;;;;;;;;;;;;;;;5059208;28;1756;-69
2022/07/11 13:04:37;;;;;;;;;;;;;;;;;;5060367;28;1758;-69
2022/07/11 13:10:03;;;;;;;;;;;;;;;;;;5056973;28;1772;-70
2022/07/11 13:12:30;;;;;;;;;;;;;;;;;;5036852;28;2029;-71
2022/07/11 13:15:10;;;;;;;;;;;;;;;;;;5043515;28;1827;-71
2022/07/11 13:17:38;;;;;;;;;;;;;;;;;;5036387;28;1862;-72
2022/07/11 13:20:06;;;;;;;;;;;;;;;;;;5044015;28;1666;-72
2022/07/11 13:22:32;;;;;;;;;;;;;;;;;;5065278;28;1878;-72
2022/07/11 13:24:59;;;;;;;;;;;;;;;;;;5051627;28;1415;-72
2022/07/11 13:27:25;;;;;;;;;;;;;;;;;;5045175;28;1452;-70
2022/07/11 13:29:51;;;;;;;;;;;;;;;;;;5068399;28;1086;-68
2022/07/11 13:32:17;;;;;;;;;;;;;;;;;;5061405;28;1965;-70
2022/07/11 13:34:45;;;;;;;;;;;;;;;;;;5042809;28;1724;-70
2022/07/11 13:37:11;;;;;;;;;;;;;;;;;;5043601;28;1765;-71
2022/07/11 13:39:37;;;;;;;;;;;;;;;;;;5071371;28;1108;-70
2022/07/11 13:42:04;;;;;;;;;;;;;;;;;;5053186;28;1143;-71
2022/07/11 13:44:30;;;;;;;;;;;;;;;;;;5033092;28;2048;-70
2022/07/11 13:46:57;;;;;;;;;;;;;;;;;;5051107;28;2037;-70
2022/07/11 13:49:23;;;;;;;;;;;;;;;;;;5040344;28;2022;-72
2022/07/11 13:51:52;;;;;;;;;;;;;;;;;;5041723;28;2034;-71
2022/07/11 13:54:18;;;;;;;;;;;;;;;;;;5065978;28;1922;-72
2022/07/11 13:56:44;;;;;;;;;;;;;;;;;;5030869;28;1431;-69
2022/07/11 13:59:11;;;;;;;;;;;;;;;;;;5057424;28;1787;-70
2022/07/11 14:01:37;;;;;;;;;;;;;;;;;;5046972;28;1796;-71
2022/07/11 14:04:03;;;;;;;;;;;;;;;;;;5068281;28;2108;-72
2022/07/11 14:06:30;;;;;;;;;;;;;;;;;;5038334;28;2093;-72
2022/07/11 14:08:57;;;;;;;;;;;;;;;;;;5070400;28;1534;-71
2022/07/11 14:11:23;;;;;;;;;;;;;;;;;;5059022;28;1484;-71
2022/07/11 14:13:50;;;;;;;;;;;;;;;;;;5045850;28;1922;-71
2022/07/11 14:16:18;;;;;;;;;;;;;;;;;;5036534;28;1389;-71
2022/07/11 14:18:44;;;;;;;;;;;;;;;;;;5050700;28;1114;-71
2022/07/11 14:21:10;;;;;;;;;;;;;;;;;;5034585;28;1776;-71
2022/07/11 14:23:36;;;;;;;;;;;;;;;;;;5070584;28;1038;-71
2022/07/11 14:26:06;;;;;;;;;;;;;;;;;;5053835;28;1383;-70
2022/07/11 14:28:32;;;;;;;;;;;;;;;;;;5055861;28;1688;-71
2022/07/11 14:30:59;;;;;;;;;;;;;;;;;;5047236;28;1828;-70
2022/07/11 14:33:25;;;;;;;;;;;;;;;;;;5034320;28;1922;-71
2022/07/11 14:35:51;;;;;;;;;;;;;;;;;;5055216;28;2067;-71
2022/07/11 14:38:18;;;;;;;;;;;;;;;;;;5052334;28;1668;-69
2022/07/11 14:40:44;;;;;;;;;;;;;;;;;;5025985;28;2189;-70
2022/07/11 14:43:11;;;;;;;;;;;;;;;;;;5046537;28;1816;-71
2022/07/11 14:45:38;;;;;;;;;;;;;;;;;;5031845;28;1436;-70
2022/07/11 14:48:04;;;;;;;;;;;;;;;;;;5050748;28;1812;-69
2022/07/11 14:50:33;;;;;;;;;;;;;;;;;;5044891;28;1521;-70
2022/07/11 14:52:59;;;;;;;;;;;;;;;;;;5032183;28;1922;-70
2022/07/11 14:55:26;;;;;;;;;;;;;;;;;;5042162;28;1729;-69
2022/07/11 14:57:52;;;;;;;;;;;;;;;;;;5069643;28;1098;-70
2022/07/11 15:00:21;;;;;;;;;;;;;;;;;;5041066;28;1411;-69
2022/07/11 15:05:31;;;;;;;;;;;;;;;;;;5037606;28;1399;-69
2022/07/11 15:13:25;;;;;;;;;;;;;;;;;;5058393;28;1989;-70
2022/07/11 15:15:52;;;;;;;;;;;;;;;;;;5067031;28;1321;-70
2022/07/11 15:18:18;;;;;;;;;;;;;;;;;;5051520;28;1183;-70
2022/07/11 15:20:45;;;;;;;;;;;;;;;;;;5055164;28;1467;-70
2022/07/11 15:23:11;;;;;;;;;;;;;;;;;;5043734;28;1055;-70
2022/07/11 15:25:37;;;;;;;;;;;;;;;;;;5045963;28;1484;-71
2022/07/11 15:28:03;;;;;;;;;;;;;;;;;;5067567;28;1186;-71
2022/07/11 15:30:29;;;;;;;;;;;;;;;;;;5047205;28;1448;-70
2022/07/11 15:32:57;;;;;;;;;;;;;;;;;;5053169;28;2351;-70
2022/07/11 15:35:23;;;;;;;;;;;;;;;;;;5073886;28;1305;-69
2022/07/11 15:37:50;;;;;;;;;;;;;;;;;;5067075;28;1412;-70
2022/07/11 15:40:16;;;;;;;;;;;;;;;;;;5073276;28;1149;-70
2022/07/11 15:42:42;;;;;;;;;;;;;;;;;;5063412;28;1412;-70
2022/07/11 15:45:09;;;;;;;;;;;;;;;;;;5054737;28;1336;-69
2022/07/11 15:47:35;;;;;;;;;;;;;;;;;;5055697;28;1226;-69
2022/07/11 15:50:04;;;;;;;;;;;;;;;;;;5053583;28;1087;-69
2022/07/11 15:52:30;;;;;;;;;;;;;;;;;;5067573;28;1000;-69
2022/07/11 15:54:56;;;;;;;;;;;;;;;;;;5033237;28;1981;-69
2022/07/11 15:57:22;;;;;;;;;;;;;;;;;;5054056;28;1402;-69
2022/07/11 15:59:49;;;;;;;;;;;;;;;;;;5038395;28;1419;-72
2022/07/11 16:02:15;;;;;;;;;;;;;;;;;;5058993;28;1602;-72
2022/07/11 16:04:41;;;;;;;;;;;;;;;;;;5073774;28;1324;-69
2022/07/11 16:07:08;;;;;;;;;;;;;;;;;;5072315;28;1117;-69
2022/07/11 16:09:35;;;;;;;;;;;;;;;;;;5073153;28;1075;-70
2022/07/11 16:12:02;;;;;;;;;;;;;;;;;;5045257;28;1353;-71
2022/07/11 16:14:28;;;;;;;;;;;;;;;;;;5043169;28;2033;-71
2022/07/11 16:16:54;;;;;;;;;;;;;;;;;;5041888;28;1302;-70
2022/07/11 16:19:21;;;;;;;;;;;;;;;;;;5044258;28;1728;-70
2022/07/11 16:21:48;;;;;;;;;;;;;;;;;;5041930;28;1318;-70
2022/07/11 16:24:15;;;;;;;;;;;;;;;;;;5033271;28;1063;-69
2022/07/11 16:26:41;;;;;;;;;;;;;;;;;;5034446;28;1380;-71
2022/07/11 16:29:07;;;;;;;;;;;;;;;;;;5017347;28;1213;-70
2022/07/11 16:31:34;;;;;;;;;;;;;;;;;;5034463;28;771;-71
2022/07/11 16:34:00;;;;;;;;;;;;;;;;;;5033118;28;1916;-69
2022/07/11 16:36:26;;;;;;;;;;;;;;;;;;5032966;28;1306;-70
2022/07/11 16:44:18;;;;;;;;;;;;;;;;;;5055431;28;1188;-70
2022/07/11 16:46:46;;;;;;;;;;;;;;;;;;5072897;28;1399;-71
2022/07/11 16:49:12;;;;;;;;;;;;;;;;;;5052554;28;1482;-70
2022/07/11 16:51:38;;;;;;;;;;;;;;;;;;5068100;28;1475;-70
2022/07/11 16:54:04;;;;;;;;;;;;;;;;;;5073202;28;1918;-69
2022/07/11 16:56:31;;;;;;;;;;;;;;;;;;5054701;28;1379;-70
2022/07/11 16:58:58;;;;;;;;;;;;;;;;;;5065217;28;1439;-70
2022/07/11 17:01:24;;;;;;;;;;;;;;;;;;5059937;28;1253;-71
2022/07/11 17:03:50;;;;;;;;;;;;;;;;;;5060707;28;1118;-70
2022/07/11 17:06:17;;;;;;;;;;;;;;;;;;5045668;28;1416;-69
2022/07/11 17:08:46;;;;;;;;;;;;;;;;;;5073115;28;1227;-71
2022/07/11 17:11:13;;;;;;;;;;;;;;;;;;5063966;28;1451;-71
2022/07/11 17:13:40;;;;;;;;;;;;;;;;;;5064096;28;1976;-70
2022/07/11 17:16:07;;;;;;;;;;;;;;;;;;5065113;28;1480;-69
2022/07/11 17:18:34;;;;;;;;;;;;;;;;;;5055019;28;1169;-70
2022/07/11 17:21:00;;;;;;;;;;;;;;;;;;5054915;28;1158;-71
2022/07/11 17:23:27;;;;;;;;;;;;;;;;;;5051309;28;1760;-71
2022/07/11 17:25:53;;;;;;;;;;;;;;;;;;5067004;28;1422;-71
2022/07/11 17:28:19;;;;;;;;;;;;;;;;;;5040234;28;1470;-70
2022/07/11 17:30:46;;;;;;;;;;;;;;;;;;5054671;28;1502;-70
2022/07/11 17:33:14;;;;;;;;;;;;;;;;;;5067557;28;1902;-70